sensor_id;sensor_type;location;lat;lon;timestamp;P1;durP1;ratioP1;P2;durP2;ratioP2
22378;SDS011;11357;49.990;7.370;2023-07-16T00:01:56;2.65;;;1.40;;
22378;SDS011;11357;49.990;7.370;2023-07-16T00:04:22;7.53;;;1.83;;
22378;SDS011;11357;49.990;7.370;2023-07-16T00:06:48;3.75;;;1.83;;
22378;SDS011;11357;49.990;7.370;2023-07-16T00:09:14;3.45;;;1.55;;
22378;SDS011;11357;49.990;7.370;2023-07-16T00:11:39;5.25;;;1.60;;
22378;SDS011;11357;49.990;7.370;2023-07-16T00:14:05;3.95;;;1.85;;
22378;SDS011;11357;49.990;7.370;2023-07-16T00:16:31;4.03;;;1.80;;
22378;SDS011;11357;49.990;7.370;2023-07-16T00:18:56;4.45;;;2.17;;
22378;SDS011;11357;49.990;7.370;2023-07-16T00:21:23;5.13;;;1.95;;
22378;SDS011;11357;49.990;7.370;2023-07-16T00:23:49;3.63;;;1.85;;
22378;SDS011;11357;49.990;7.370;2023-07-16T00:26:14;3.97;;;1.75;;
22378;SDS011;11357;49.990;7.370;2023-07-16T00:28:40;6.88;;;2.00;;
22378;SDS011;11357;49.990;7.370;2023-07-16T00:31:06;5.25;;;1.92;;
22378;SDS011;11357;49.990;7.370;2023-07-16T00:33:31;6.45;;;2.05;;
22378;SDS011;11357;49.990;7.370;2023-07-16T00:35:57;10.75;;;2.25;;
22378;SDS011;11357;49.990;7.370;2023-07-16T00:38:22;3.25;;;1.70;;
22378;SDS011;11357;49.990;7.370;2023-07-16T00:40:48;2.70;;;1.80;;
22378;SDS011;11357;49.990;7.370;2023-07-16T00:43:14;9.05;;;2.03;;
22378;SDS011;11357;49.990;7.370;2023-07-16T00:45:40;3.70;;;1.58;;
22378;SDS011;11357;49.990;7.370;2023-07-16T00:48:06;4.78;;;2.00;;
22378;SDS011;11357;49.990;7.370;2023-07-16T00:50:33;5.03;;;1.80;;
22378;SDS011;11357;49.990;7.370;2023-07-16T00:53:04;7.28;;;1.98;;
22378;SDS011;11357;49.990;7.370;2023-07-16T00:55:31;5.03;;;1.85;;
22378;SDS011;11357;49.990;7.370;2023-07-16T00:58:00;6.50;;;1.90;;
22378;SDS011;11357;49.990;7.370;2023-07-16T01:00:33;5.32;;;1.90;;
22378;SDS011;11357;49.990;7.370;2023-07-16T01:03:04;4.13;;;1.90;;
22378;SDS011;11357;49.990;7.370;2023-07-16T01:08:10;4.07;;;2.00;;
22378;SDS011;11357;49.990;7.370;2023-07-16T01:10:38;7.93;;;2.38;;
22378;SDS011;11357;49.990;7.370;2023-07-16T01:13:05;4.30;;;1.80;;
22378;SDS011;11357;49.990;7.370;2023-07-16T01:15:31;8.77;;;2.45;;
22378;SDS011;11357;49.990;7.370;2023-07-16T01:17:57;6.68;;;1.90;;
22378;SDS011;11357;49.990;7.370;2023-07-16T01:20:23;7.95;;;2.28;;
22378;SDS011;11357;49.990;7.370;2023-07-16T01:31:36;6.55;;;1.92;;
22378;SDS011;11357;49.990;7.370;2023-07-16T01:34:03;7.57;;;1.88;;
22378;SDS011;11357;49.990;7.370;2023-07-16T01:36:31;5.10;;;1.92;;
22378;SDS011;11357;49.990;7.370;2023-07-16T01:38:59;8.23;;;2.40;;
22378;SDS011;11357;49.990;7.370;2023-07-16T01:41:25;3.38;;;1.83;;
22378;SDS011;11357;49.990;7.370;2023-07-16T01:43:50;5.60;;;2.10;;
22378;SDS011;11357;49.990;7.370;2023-07-16T01:46:16;10.30;;;2.20;;
22378;SDS011;11357;49.990;7.370;2023-07-16T01:48:43;4.25;;;2.47;;
22378;SDS011;11357;49.990;7.370;2023-07-16T01:51:09;4.95;;;1.90;;
22378;SDS011;11357;49.990;7.370;2023-07-16T01:53:36;3.40;;;2.05;;
22378;SDS011;11357;49.990;7.370;2023-07-16T01:56:02;3.92;;;1.92;;
22378;SDS011;11357;49.990;7.370;2023-07-16T01:58:27;8.07;;;2.28;;
22378;SDS011;11357;49.990;7.370;2023-07-16T02:00:53;6.22;;;1.85;;
22378;SDS011;11357;49.990;7.370;2023-07-16T02:03:19;8.40;;;2.38;;
22378;SDS011;11357;49.990;7.370;2023-07-16T02:05:45;6.78;;;2.03;;
22378;SDS011;11357;49.990;7.370;2023-07-16T02:08:10;5.57;;;2.00;;
22378;SDS011;11357;49.990;7.370;2023-07-16T02:10:36;6.07;;;2.00;;
22378;SDS011;11357;49.990;7.370;2023-07-16T02:13:02;8.65;;;1.75;;
22378;SDS011;11357;49.990;7.370;2023-07-16T02:15:27;8.40;;;1.80;;
22378;SDS011;11357;49.990;7.370;2023-07-16T02:17:53;7.05;;;1.83;;
22378;SDS011;11357;49.990;7.370;2023-07-16T02:20:19;6.63;;;2.00;;
22378;SDS011;11357;49.990;7.370;2023-07-16T02:22:44;6.50;;;2.08;;
22378;SDS011;11357;49.990;7.370;2023-07-16T02:25:10;4.82;;;1.90;;
22378;SDS011;11357;49.990;7.370;2023-07-16T02:27:36;4.78;;;1.75;;
22378;SDS011;11357;49.990;7.370;2023-07-16T02:30:01;7.77;;;2.10;;
22378;SDS011;11357;49.990;7.370;2023-07-16T02:32:27;4.35;;;2.10;;
22378;SDS011;11357;49.990;7.370;2023-07-16T02:34:53;5.00;;;1.90;;
22378;SDS011;11357;49.990;7.370;2023-07-16T02:37:18;6.53;;;2.10;;
22378;SDS011;11357;49.990;7.370;2023-07-16T02:39:45;10.15;;;2.38;;
22378;SDS011;11357;49.990;7.370;2023-07-16T02:42:13;4.57;;;2.00;;
22378;SDS011;11357;49.990;7.370;2023-07-16T02:44:39;6.05;;;2.00;;
22378;SDS011;11357;49.990;7.370;2023-07-16T02:47:09;7.95;;;1.95;;
22378;SDS011;11357;49.990;7.370;2023-07-16T02:49:35;7.03;;;1.75;;
22378;SDS011;11357;49.990;7.370;2023-07-16T02:52:01;5.28;;;1.70;;
22378;SDS011;11357;49.990;7.370;2023-07-16T02:54:27;5.13;;;1.90;;
22378;SDS011;11357;49.990;7.370;2023-07-16T02:56:52;6.25;;;1.83;;
22378;SDS011;11357;49.990;7.370;2023-07-16T02:59:18;6.45;;;1.55;;
22378;SDS011;11357;49.990;7.370;2023-07-16T03:01:44;7.87;;;1.90;;
22378;SDS011;11357;49.990;7.370;2023-07-16T03:04:09;5.88;;;2.10;;
22378;SDS011;11357;49.990;7.370;2023-07-16T03:06:35;5.50;;;2.03;;
22378;SDS011;11357;49.990;7.370;2023-07-16T03:09:01;5.18;;;2.17;;
22378;SDS011;11357;49.990;7.370;2023-07-16T03:11:26;9.10;;;2.10;;
22378;SDS011;11357;49.990;7.370;2023-07-16T03:13:52;3.72;;;1.77;;
22378;SDS011;11357;49.990;7.370;2023-07-16T03:16:18;8.27;;;2.20;;
22378;SDS011;11357;49.990;7.370;2023-07-16T03:18:44;3.42;;;1.55;;
22378;SDS011;11357;49.990;7.370;2023-07-16T03:21:10;5.40;;;1.75;;
22378;SDS011;11357;49.990;7.370;2023-07-16T03:23:36;4.10;;;1.90;;
22378;SDS011;11357;49.990;7.370;2023-07-16T03:26:02;4.77;;;2.07;;
22378;SDS011;11357;49.990;7.370;2023-07-16T03:28:27;5.87;;;1.87;;
22378;SDS011;11357;49.990;7.370;2023-07-16T03:30:53;6.63;;;2.00;;
22378;SDS011;11357;49.990;7.370;2023-07-16T03:33:19;6.85;;;2.13;;
22378;SDS011;11357;49.990;7.370;2023-07-16T03:35:45;5.43;;;1.87;;
22378;SDS011;11357;49.990;7.370;2023-07-16T03:38:12;8.83;;;1.90;;
22378;SDS011;11357;49.990;7.370;2023-07-16T03:40:38;8.33;;;2.20;;
22378;SDS011;11357;49.990;7.370;2023-07-16T03:43:04;5.55;;;1.75;;
22378;SDS011;11357;49.990;7.370;2023-07-16T03:45:30;7.83;;;1.93;;
22378;SDS011;11357;49.990;7.370;2023-07-16T03:47:56;5.87;;;2.10;;
22378;SDS011;11357;49.990;7.370;2023-07-16T03:50:22;2.87;;;1.87;;
22378;SDS011;11357;49.990;7.370;2023-07-16T03:52:47;8.68;;;2.60;;
22378;SDS011;11357;49.990;7.370;2023-07-16T03:55:13;7.53;;;2.13;;
22378;SDS011;11357;49.990;7.370;2023-07-16T03:57:40;6.60;;;1.87;;
22378;SDS011;11357;49.990;7.370;2023-07-16T04:00:06;7.43;;;1.87;;
22378;SDS011;11357;49.990;7.370;2023-07-16T04:02:34;7.90;;;2.47;;
22378;SDS011;11357;49.990;7.370;2023-07-16T04:05:00;5.93;;;1.83;;
22378;SDS011;11357;49.990;7.370;2023-07-16T04:07:25;8.27;;;1.80;;
22378;SDS011;11357;49.990;7.370;2023-07-16T04:09:51;6.33;;;2.37;;
22378;SDS011;11357;49.990;7.370;2023-07-16T04:12:17;5.37;;;1.87;;
22378;SDS011;11357;49.990;7.370;2023-07-16T04:14:43;5.57;;;2.00;;
22378;SDS011;11357;49.990;7.370;2023-07-16T04:17:09;5.33;;;2.33;;
22378;SDS011;11357;49.990;7.370;2023-07-16T04:19:34;6.37;;;2.03;;
22378;SDS011;11357;49.990;7.370;2023-07-16T04:22:00;7.87;;;2.37;;
22378;SDS011;11357;49.990;7.370;2023-07-16T04:24:26;3.83;;;1.97;;
22378;SDS011;11357;49.990;7.370;2023-07-16T04:26:52;3.97;;;2.40;;
22378;SDS011;11357;49.990;7.370;2023-07-16T04:29:18;5.73;;;2.40;;
22378;SDS011;11357;49.990;7.370;2023-07-16T04:31:44;6.47;;;2.60;;
22378;SDS011;11357;49.990;7.370;2023-07-16T04:34:09;9.17;;;2.53;;
22378;SDS011;11357;49.990;7.370;2023-07-16T04:36:35;7.90;;;2.70;;
22378;SDS011;11357;49.990;7.370;2023-07-16T04:39:00;7.53;;;2.57;;
22378;SDS011;11357;49.990;7.370;2023-07-16T04:41:27;7.03;;;2.17;;
22378;SDS011;11357;49.990;7.370;2023-07-16T04:43:52;11.53;;;2.43;;
22378;SDS011;11357;49.990;7.370;2023-07-16T04:46:18;7.50;;;2.17;;
22378;SDS011;11357;49.990;7.370;2023-07-16T04:48:44;8.03;;;2.63;;
22378;SDS011;11357;49.990;7.370;2023-07-16T04:51:09;6.37;;;2.40;;
22378;SDS011;11357;49.990;7.370;2023-07-16T04:53:35;6.90;;;2.30;;
22378;SDS011;11357;49.990;7.370;2023-07-16T04:56:01;10.90;;;2.60;;
22378;SDS011;11357;49.990;7.370;2023-07-16T04:58:26;8.40;;;2.67;;
22378;SDS011;11357;49.990;7.370;2023-07-16T05:00:52;9.97;;;2.87;;
22378;SDS011;11357;49.990;7.370;2023-07-16T05:03:18;15.57;;;3.13;;
22378;SDS011;11357;49.990;7.370;2023-07-16T05:05:43;8.77;;;3.00;;
22378;SDS011;11357;49.990;7.370;2023-07-16T05:08:09;8.27;;;2.45;;
22378;SDS011;11357;49.990;7.370;2023-07-16T05:10:35;8.93;;;3.10;;
22378;SDS011;11357;49.990;7.370;2023-07-16T05:13:01;5.72;;;2.78;;
22378;SDS011;11357;49.990;7.370;2023-07-16T05:15:28;6.40;;;2.92;;
22378;SDS011;11357;49.990;7.370;2023-07-16T05:17:54;11.40;;;3.78;;
22378;SDS011;11357;49.990;7.370;2023-07-16T05:20:22;8.23;;;3.00;;
22378;SDS011;11357;49.990;7.370;2023-07-16T05:22:48;9.90;;;3.17;;
22378;SDS011;11357;49.990;7.370;2023-07-16T05:25:14;13.93;;;3.83;;
22378;SDS011;11357;49.990;7.370;2023-07-16T05:27:39;12.75;;;3.67;;
22378;SDS011;11357;49.990;7.370;2023-07-16T05:30:05;11.23;;;3.28;;
22378;SDS011;11357;49.990;7.370;2023-07-16T05:32:31;6.57;;;2.83;;
22378;SDS011;11357;49.990;7.370;2023-07-16T05:34:57;15.57;;;3.35;;
22378;SDS011;11357;49.990;7.370;2023-07-16T05:37:23;11.05;;;3.40;;
22378;SDS011;11357;49.990;7.370;2023-07-16T05:39:48;10.45;;;3.38;;
22378;SDS011;11357;49.990;7.370;2023-07-16T05:42:14;10.88;;;3.60;;
22378;SDS011;11357;49.990;7.370;2023-07-16T05:44:39;8.50;;;3.20;;
22378;SDS011;11357;49.990;7.370;2023-07-16T05:47:06;10.03;;;3.40;;
22378;SDS011;11357;49.990;7.370;2023-07-16T05:49:33;8.02;;;2.95;;
22378;SDS011;11357;49.990;7.370;2023-07-16T05:51:58;8.52;;;3.00;;
22378;SDS011;11357;49.990;7.370;2023-07-16T05:54:24;15.20;;;4.03;;
22378;SDS011;11357;49.990;7.370;2023-07-16T05:56:50;11.38;;;3.08;;
22378;SDS011;11357;49.990;7.370;2023-07-16T05:59:15;10.02;;;3.70;;
22378;SDS011;11357;49.990;7.370;2023-07-16T06:01:41;10.10;;;3.30;;
22378;SDS011;11357;49.990;7.370;2023-07-16T06:04:07;10.95;;;3.75;;
22378;SDS011;11357;49.990;7.370;2023-07-16T06:06:32;9.73;;;3.75;;
22378;SDS011;11357;49.990;7.370;2023-07-16T06:08:58;12.73;;;3.63;;
22378;SDS011;11357;49.990;7.370;2023-07-16T06:11:24;8.70;;;3.30;;
22378;SDS011;11357;49.990;7.370;2023-07-16T06:13:52;8.88;;;3.38;;
22378;SDS011;11357;49.990;7.370;2023-07-16T06:16:19;7.15;;;3.40;;
22378;SDS011;11357;49.990;7.370;2023-07-16T06:18:45;8.93;;;3.45;;
22378;SDS011;11357;49.990;7.370;2023-07-16T06:21:11;8.95;;;3.33;;
22378;SDS011;11357;49.990;7.370;2023-07-16T06:23:37;12.98;;;3.90;;
22378;SDS011;11357;49.990;7.370;2023-07-16T06:26:03;9.07;;;3.55;;
22378;SDS011;11357;49.990;7.370;2023-07-16T06:28:29;10.48;;;3.30;;
22378;SDS011;11357;49.990;7.370;2023-07-16T06:30:55;7.90;;;4.32;;
22378;SDS011;11357;49.990;7.370;2023-07-16T06:33:20;8.48;;;3.20;;
22378;SDS011;11357;49.990;7.370;2023-07-16T06:35:46;8.57;;;3.85;;
22378;SDS011;11357;49.990;7.370;2023-07-16T06:38:13;13.43;;;3.53;;
22378;SDS011;11357;49.990;7.370;2023-07-16T06:40:39;7.35;;;3.35;;
22378;SDS011;11357;49.990;7.370;2023-07-16T06:43:10;6.72;;;3.50;;
22378;SDS011;11357;49.990;7.370;2023-07-16T06:45:36;12.70;;;3.42;;
22378;SDS011;11357;49.990;7.370;2023-07-16T06:48:01;7.03;;;3.60;;
22378;SDS011;11357;49.990;7.370;2023-07-16T06:50:27;12.35;;;3.40;;
22378;SDS011;11357;49.990;7.370;2023-07-16T06:52:53;6.80;;;3.22;;
22378;SDS011;11357;49.990;7.370;2023-07-16T06:55:18;9.48;;;3.50;;
22378;SDS011;11357;49.990;7.370;2023-07-16T06:57:44;8.98;;;3.70;;
22378;SDS011;11357;49.990;7.370;2023-07-16T07:00:09;12.07;;;3.45;;
22378;SDS011;11357;49.990;7.370;2023-07-16T07:02:36;7.60;;;3.58;;
22378;SDS011;11357;49.990;7.370;2023-07-16T07:05:02;8.48;;;3.00;;
22378;SDS011;11357;49.990;7.370;2023-07-16T07:07:27;5.25;;;2.85;;
22378;SDS011;11357;49.990;7.370;2023-07-16T07:09:53;8.40;;;3.40;;
22378;SDS011;11357;49.990;7.370;2023-07-16T07:12:19;8.23;;;3.03;;
22378;SDS011;11357;49.990;7.370;2023-07-16T07:14:46;5.40;;;2.97;;
22378;SDS011;11357;49.990;7.370;2023-07-16T07:17:12;7.80;;;3.30;;
22378;SDS011;11357;49.990;7.370;2023-07-16T07:19:38;9.07;;;2.55;;
22378;SDS011;11357;49.990;7.370;2023-07-16T07:22:03;8.43;;;3.03;;
22378;SDS011;11357;49.990;7.370;2023-07-16T07:24:29;13.55;;;3.45;;
22378;SDS011;11357;49.990;7.370;2023-07-16T07:26:54;9.55;;;3.28;;
22378;SDS011;11357;49.990;7.370;2023-07-16T07:29:20;9.98;;;3.00;;
22378;SDS011;11357;49.990;7.370;2023-07-16T07:31:46;6.63;;;3.22;;
22378;SDS011;11357;49.990;7.370;2023-07-16T07:34:11;5.55;;;3.08;;
22378;SDS011;11357;49.990;7.370;2023-07-16T07:36:37;7.93;;;3.42;;
22378;SDS011;11357;49.990;7.370;2023-07-16T07:39:02;5.95;;;2.95;;
22378;SDS011;11357;49.990;7.370;2023-07-16T07:41:28;9.98;;;3.58;;
22378;SDS011;11357;49.990;7.370;2023-07-16T07:43:54;7.55;;;3.03;;
22378;SDS011;11357;49.990;7.370;2023-07-16T07:46:19;7.50;;;3.67;;
22378;SDS011;11357;49.990;7.370;2023-07-16T07:48:45;8.15;;;3.47;;
22378;SDS011;11357;49.990;7.370;2023-07-16T07:51:11;13.25;;;3.47;;
22378;SDS011;11357;49.990;7.370;2023-07-16T07:53:36;7.85;;;3.13;;
22378;SDS011;11357;49.990;7.370;2023-07-16T07:56:02;7.97;;;3.40;;
22378;SDS011;11357;49.990;7.370;2023-07-16T07:58:28;7.70;;;3.28;;
22378;SDS011;11357;49.990;7.370;2023-07-16T08:00:54;10.68;;;3.72;;
22378;SDS011;11357;49.990;7.370;2023-07-16T08:03:19;6.53;;;3.25;;
22378;SDS011;11357;49.990;7.370;2023-07-16T08:05:47;10.32;;;3.92;;
22378;SDS011;11357;49.990;7.370;2023-07-16T08:08:14;5.18;;;3.35;;
22378;SDS011;11357;49.990;7.370;2023-07-16T08:10:40;6.78;;;3.55;;
22378;SDS011;11357;49.990;7.370;2023-07-16T08:13:05;6.47;;;3.65;;
22378;SDS011;11357;49.990;7.370;2023-07-16T08:15:31;7.43;;;3.40;;
22378;SDS011;11357;49.990;7.370;2023-07-16T08:17:57;9.65;;;3.75;;
22378;SDS011;11357;49.990;7.370;2023-07-16T08:20:24;5.03;;;3.35;;
22378;SDS011;11357;49.990;7.370;2023-07-16T08:22:51;7.18;;;3.28;;
22378;SDS011;11357;49.990;7.370;2023-07-16T08:25:16;10.82;;;3.95;;
22378;SDS011;11357;49.990;7.370;2023-07-16T08:27:42;9.82;;;4.03;;
22378;SDS011;11357;49.990;7.370;2023-07-16T08:30:08;8.45;;;3.65;;
22378;SDS011;11357;49.990;7.370;2023-07-16T08:32:34;6.93;;;3.25;;
22378;SDS011;11357;49.990;7.370;2023-07-16T08:34:59;8.65;;;4.25;;
22378;SDS011;11357;49.990;7.370;2023-07-16T08:37:25;13.73;;;3.83;;
22378;SDS011;11357;49.990;7.370;2023-07-16T08:39:51;10.32;;;3.42;;
22378;SDS011;11357;49.990;7.370;2023-07-16T08:42:20;8.00;;;3.78;;
22378;SDS011;11357;49.990;7.370;2023-07-16T08:44:47;9.43;;;3.47;;
22378;SDS011;11357;49.990;7.370;2023-07-16T08:47:14;9.25;;;3.83;;
22378;SDS011;11357;49.990;7.370;2023-07-16T08:49:40;6.88;;;3.33;;
22378;SDS011;11357;49.990;7.370;2023-07-16T08:52:06;8.43;;;3.53;;
22378;SDS011;11357;49.990;7.370;2023-07-16T08:54:34;9.50;;;3.40;;
22378;SDS011;11357;49.990;7.370;2023-07-16T08:57:00;7.40;;;2.83;;
22378;SDS011;11357;49.990;7.370;2023-07-16T08:59:26;6.75;;;3.20;;
22378;SDS011;11357;49.990;7.370;2023-07-16T09:01:52;8.48;;;3.30;;
22378;SDS011;11357;49.990;7.370;2023-07-16T09:04:18;7.65;;;3.53;;
22378;SDS011;11357;49.990;7.370;2023-07-16T09:06:44;6.72;;;2.92;;
22378;SDS011;11357;49.990;7.370;2023-07-16T09:09:20;15.43;;;3.90;;
22378;SDS011;11357;49.990;7.370;2023-07-16T09:11:47;9.68;;;3.00;;
22378;SDS011;11357;49.990;7.370;2023-07-16T09:14:17;4.45;;;2.72;;
22378;SDS011;11357;49.990;7.370;2023-07-16T09:16:47;5.68;;;2.90;;
22378;SDS011;11357;49.990;7.370;2023-07-16T09:19:14;4.13;;;2.67;;
22378;SDS011;11357;49.990;7.370;2023-07-16T09:21:42;4.90;;;2.75;;
22378;SDS011;11357;49.990;7.370;2023-07-16T09:24:08;5.57;;;2.88;;
22378;SDS011;11357;49.990;7.370;2023-07-16T09:26:37;7.38;;;2.97;;
22378;SDS011;11357;49.990;7.370;2023-07-16T09:29:06;6.82;;;3.10;;
22378;SDS011;11357;49.990;7.370;2023-07-16T09:31:33;7.00;;;2.75;;
22378;SDS011;11357;49.990;7.370;2023-07-16T09:33:58;8.18;;;3.13;;
22378;SDS011;11357;49.990;7.370;2023-07-16T09:36:25;3.78;;;2.67;;
22378;SDS011;11357;49.990;7.370;2023-07-16T09:38:52;6.07;;;3.30;;
22378;SDS011;11357;49.990;7.370;2023-07-16T09:41:20;6.68;;;3.10;;
22378;SDS011;11357;49.990;7.370;2023-07-16T09:43:46;7.70;;;3.22;;
22378;SDS011;11357;49.990;7.370;2023-07-16T09:46:12;5.88;;;3.45;;
22378;SDS011;11357;49.990;7.370;2023-07-16T09:48:38;6.70;;;3.17;;
22378;SDS011;11357;49.990;7.370;2023-07-16T09:51:03;5.93;;;2.90;;
22378;SDS011;11357;49.990;7.370;2023-07-16T09:53:32;9.82;;;3.13;;
22378;SDS011;11357;49.990;7.370;2023-07-16T09:56:01;5.28;;;3.17;;
22378;SDS011;11357;49.990;7.370;2023-07-16T09:58:30;6.70;;;3.25;;
22378;SDS011;11357;49.990;7.370;2023-07-16T10:00:56;5.55;;;3.03;;
22378;SDS011;11357;49.990;7.370;2023-07-16T10:03:23;7.90;;;3.13;;
22378;SDS011;11357;49.990;7.370;2023-07-16T10:05:49;10.50;;;3.30;;
22378;SDS011;11357;49.990;7.370;2023-07-16T10:08:17;7.28;;;2.95;;
22378;SDS011;11357;49.990;7.370;2023-07-16T10:13:13;6.18;;;3.38;;
22378;SDS011;11357;49.990;7.370;2023-07-16T10:15:50;8.55;;;3.60;;
22378;SDS011;11357;49.990;7.370;2023-07-16T10:20:49;6.65;;;3.80;;
22378;SDS011;11357;49.990;7.370;2023-07-16T10:23:17;5.75;;;3.35;;
22378;SDS011;11357;49.990;7.370;2023-07-16T10:25:59;10.57;;;4.35;;
22378;SDS011;11357;49.990;7.370;2023-07-16T10:28:26;7.93;;;3.25;;
22378;SDS011;11357;49.990;7.370;2023-07-16T10:30:52;8.00;;;3.25;;
22378;SDS011;11357;49.990;7.370;2023-07-16T10:33:18;8.90;;;3.70;;
22378;SDS011;11357;49.990;7.370;2023-07-16T10:35:45;7.70;;;3.75;;
22378;SDS011;11357;49.990;7.370;2023-07-16T10:38:12;8.65;;;4.15;;
22378;SDS011;11357;49.990;7.370;2023-07-16T10:40:41;6.00;;;3.55;;
22378;SDS011;11357;49.990;7.370;2023-07-16T10:43:08;7.75;;;3.50;;
22378;SDS011;11357;49.990;7.370;2023-07-16T10:45:34;8.35;;;3.25;;
22378;SDS011;11357;49.990;7.370;2023-07-16T10:47:59;7.82;;;4.05;;
22378;SDS011;11357;49.990;7.370;2023-07-16T10:50:25;6.65;;;3.60;;
22378;SDS011;11357;49.990;7.370;2023-07-16T10:52:54;6.65;;;4.00;;
22378;SDS011;11357;49.990;7.370;2023-07-16T10:55:21;10.70;;;3.65;;
22378;SDS011;11357;49.990;7.370;2023-07-16T10:57:48;8.18;;;3.65;;
22378;SDS011;11357;49.990;7.370;2023-07-16T11:00:14;5.75;;;3.70;;
22378;SDS011;11357;49.990;7.370;2023-07-16T11:02:41;5.90;;;3.63;;
22378;SDS011;11357;49.990;7.370;2023-07-16T11:05:12;5.85;;;3.55;;
22378;SDS011;11357;49.990;7.370;2023-07-16T11:07:45;8.88;;;3.53;;
22378;SDS011;11357;49.990;7.370;2023-07-16T11:10:12;6.97;;;3.33;;
22378;SDS011;11357;49.990;7.370;2023-07-16T11:12:41;5.72;;;3.55;;
22378;SDS011;11357;49.990;7.370;2023-07-16T11:15:07;6.05;;;3.20;;
22378;SDS011;11357;49.990;7.370;2023-07-16T11:17:33;8.00;;;3.45;;
22378;SDS011;11357;49.990;7.370;2023-07-16T11:19:59;6.32;;;3.70;;
22378;SDS011;11357;49.990;7.370;2023-07-16T11:22:27;7.32;;;3.35;;
22378;SDS011;11357;49.990;7.370;2023-07-16T11:24:53;5.93;;;3.83;;
22378;SDS011;11357;49.990;7.370;2023-07-16T11:29:47;6.07;;;3.30;;
22378;SDS011;11357;49.990;7.370;2023-07-16T11:32:25;7.53;;;3.70;;
22378;SDS011;11357;49.990;7.370;2023-07-16T11:35:15;5.07;;;3.58;;
22378;SDS011;11357;49.990;7.370;2023-07-16T11:37:42;7.15;;;3.88;;
22378;SDS011;11357;49.990;7.370;2023-07-16T11:40:10;5.43;;;3.58;;
22378;SDS011;11357;49.990;7.370;2023-07-16T11:42:39;5.53;;;3.25;;
22378;SDS011;11357;49.990;7.370;2023-07-16T11:45:17;8.38;;;3.95;;
22378;SDS011;11357;49.990;7.370;2023-07-16T11:47:48;7.00;;;3.90;;
22378;SDS011;11357;49.990;7.370;2023-07-16T11:50:14;8.95;;;4.30;;
22378;SDS011;11357;49.990;7.370;2023-07-16T11:52:40;6.78;;;4.00;;
22378;SDS011;11357;49.990;7.370;2023-07-16T11:55:06;10.70;;;4.72;;
22378;SDS011;11357;49.990;7.370;2023-07-16T11:57:32;6.15;;;4.28;;
22378;SDS011;11357;49.990;7.370;2023-07-16T11:59:58;8.60;;;4.68;;
22378;SDS011;11357;49.990;7.370;2023-07-16T12:02:25;6.38;;;3.90;;
22378;SDS011;11357;49.990;7.370;2023-07-16T12:04:51;6.38;;;4.30;;
22378;SDS011;11357;49.990;7.370;2023-07-16T12:07:35;6.75;;;3.47;;
22378;SDS011;11357;49.990;7.370;2023-07-16T12:10:03;7.85;;;4.18;;
22378;SDS011;11357;49.990;7.370;2023-07-16T12:12:30;6.78;;;4.00;;
22378;SDS011;11357;49.990;7.370;2023-07-16T12:14:55;5.57;;;3.67;;
22378;SDS011;11357;49.990;7.370;2023-07-16T12:17:21;5.20;;;3.50;;
22378;SDS011;11357;49.990;7.370;2023-07-16T12:19:47;6.53;;;3.55;;
22378;SDS011;11357;49.990;7.370;2023-07-16T12:22:12;7.85;;;3.85;;
22378;SDS011;11357;49.990;7.370;2023-07-16T12:24:41;5.97;;;3.83;;
22378;SDS011;11357;49.990;7.370;2023-07-16T12:27:06;7.45;;;3.80;;
22378;SDS011;11357;49.990;7.370;2023-07-16T12:29:32;4.63;;;3.72;;
22378;SDS011;11357;49.990;7.370;2023-07-16T12:31:58;8.98;;;3.70;;
22378;SDS011;11357;49.990;7.370;2023-07-16T12:34:24;7.63;;;3.92;;
22378;SDS011;11357;49.990;7.370;2023-07-16T12:36:50;14.80;;;3.85;;
22378;SDS011;11357;49.990;7.370;2023-07-16T12:39:16;6.22;;;3.80;;
22378;SDS011;11357;49.990;7.370;2023-07-16T12:41:45;5.32;;;3.55;;
22378;SDS011;11357;49.990;7.370;2023-07-16T12:44:11;7.28;;;3.90;;
22378;SDS011;11357;49.990;7.370;2023-07-16T12:46:37;8.20;;;3.70;;
22378;SDS011;11357;49.990;7.370;2023-07-16T12:49:02;10.02;;;3.97;;
22378;SDS011;11357;49.990;7.370;2023-07-16T12:51:28;13.57;;;3.80;;
22378;SDS011;11357;49.990;7.370;2023-07-16T12:53:54;9.52;;;3.67;;
22378;SDS011;11357;49.990;7.370;2023-07-16T12:56:19;5.38;;;3.50;;
22378;SDS011;11357;49.990;7.370;2023-07-16T12:58:47;9.20;;;3.85;;
22378;SDS011;11357;49.990;7.370;2023-07-16T13:01:13;7.55;;;3.45;;
22378;SDS011;11357;49.990;7.370;2023-07-16T13:03:39;7.13;;;3.70;;
22378;SDS011;11357;49.990;7.370;2023-07-16T13:06:04;7.78;;;4.18;;
22378;SDS011;11357;49.990;7.370;2023-07-16T13:08:30;6.68;;;3.63;;
22378;SDS011;11357;49.990;7.370;2023-07-16T13:10:56;5.93;;;3.65;;
22378;SDS011;11357;49.990;7.370;2023-07-16T13:13:22;6.38;;;3.30;;
22378;SDS011;11357;49.990;7.370;2023-07-16T13:15:48;6.72;;;3.63;;
22378;SDS011;11357;49.990;7.370;2023-07-16T13:18:13;7.68;;;3.58;;
22378;SDS011;11357;49.990;7.370;2023-07-16T13:20:39;6.45;;;3.45;;
22378;SDS011;11357;49.990;7.370;2023-07-16T13:23:05;6.35;;;3.67;;
22378;SDS011;11357;49.990;7.370;2023-07-16T13:25:33;6.25;;;3.60;;
22378;SDS011;11357;49.990;7.370;2023-07-16T13:27:59;7.82;;;4.25;;
22378;SDS011;11357;49.990;7.370;2023-07-16T13:30:25;4.53;;;3.38;;
22378;SDS011;11357;49.990;7.370;2023-07-16T13:32:51;5.80;;;4.03;;
22378;SDS011;11357;49.990;7.370;2023-07-16T13:35:20;6.85;;;4.40;;
22378;SDS011;11357;49.990;7.370;2023-07-16T13:37:46;5.38;;;3.15;;
22378;SDS011;11357;49.990;7.370;2023-07-16T13:40:11;7.80;;;3.58;;
22378;SDS011;11357;49.990;7.370;2023-07-16T13:42:37;8.32;;;3.85;;
22378;SDS011;11357;49.990;7.370;2023-07-16T13:45:04;8.70;;;4.15;;
22378;SDS011;11357;49.990;7.370;2023-07-16T13:47:30;7.15;;;3.58;;
22378;SDS011;11357;49.990;7.370;2023-07-16T13:49:56;6.03;;;3.67;;
22378;SDS011;11357;49.990;7.370;2023-07-16T13:52:22;7.97;;;4.22;;
22378;SDS011;11357;49.990;7.370;2023-07-16T13:54:47;8.35;;;3.50;;
22378;SDS011;11357;49.990;7.370;2023-07-16T13:57:13;9.23;;;3.97;;
22378;SDS011;11357;49.990;7.370;2023-07-16T13:59:39;8.85;;;4.07;;
22378;SDS011;11357;49.990;7.370;2023-07-16T14:02:04;8.82;;;3.92;;
22378;SDS011;11357;49.990;7.370;2023-07-16T14:04:30;8.35;;;4.57;;
22378;SDS011;11357;49.990;7.370;2023-07-16T14:06:56;7.38;;;3.90;;
22378;SDS011;11357;49.990;7.370;2023-07-16T14:09:22;5.75;;;3.25;;
22378;SDS011;11357;49.990;7.370;2023-07-16T14:11:47;6.70;;;3.25;;
22378;SDS011;11357;49.990;7.370;2023-07-16T14:14:14;5.93;;;3.80;;
22378;SDS011;11357;49.990;7.370;2023-07-16T14:16:40;6.18;;;3.80;;
22378;SDS011;11357;49.990;7.370;2023-07-16T14:19:06;8.52;;;3.95;;
22378;SDS011;11357;49.990;7.370;2023-07-16T14:21:31;7.95;;;4.20;;
22378;SDS011;11357;49.990;7.370;2023-07-16T14:23:57;8.23;;;4.05;;
22378;SDS011;11357;49.990;7.370;2023-07-16T14:26:23;7.03;;;3.58;;
22378;SDS011;11357;49.990;7.370;2023-07-16T14:28:48;7.43;;;3.58;;
22378;SDS011;11357;49.990;7.370;2023-07-16T14:31:14;6.35;;;3.78;;
22378;SDS011;11357;49.990;7.370;2023-07-16T14:33:40;6.35;;;3.90;;
22378;SDS011;11357;49.990;7.370;2023-07-16T14:36:06;10.70;;;3.58;;
22378;SDS011;11357;49.990;7.370;2023-07-16T14:38:31;8.10;;;4.47;;
22378;SDS011;11357;49.990;7.370;2023-07-16T14:40:57;6.25;;;3.78;;
22378;SDS011;11357;49.990;7.370;2023-07-16T14:43:22;6.75;;;3.63;;
22378;SDS011;11357;49.990;7.370;2023-07-16T14:45:48;7.95;;;4.00;;
22378;SDS011;11357;49.990;7.370;2023-07-16T14:48:14;7.32;;;3.55;;
22378;SDS011;11357;49.990;7.370;2023-07-16T14:50:40;6.68;;;3.65;;
22378;SDS011;11357;49.990;7.370;2023-07-16T14:53:06;7.18;;;3.88;;
22378;SDS011;11357;49.990;7.370;2023-07-16T14:55:32;8.48;;;4.05;;
22378;SDS011;11357;49.990;7.370;2023-07-16T14:57:57;6.70;;;3.70;;
22378;SDS011;11357;49.990;7.370;2023-07-16T15:00:23;8.25;;;3.95;;